Bookmark and Share
Track history (hours):
 

Gulbeniz A

Last reported at 2014-Apr-16 03:27 UTC. Time now 2014-Apr-19 09:40 UTC.
Position N 09°30' W 016°38'.

Length 210 m; draft 9.1 m.

Type: Ship (hazmat cat A). MMSI: 271042493.

NotesDate/timePositionNaut miles runAvg speedWind from/ knotsBaromVisibWave heightAir tempDewpointWater temp
2014-Apr-16 03:27N 09°30' W 016°38'1314.5
2014-Apr-16 02:32N 09°39' W 016°48'1414.6
2014-Apr-16 01:33N 09°50' W 016°57'1514.8
2014-Apr-16 00:33N 10°04' W 017°03'2014.6
2014-Apr-15 23:10N 10°22' W 017°12'1614.5
2014-Apr-15 22:03N 10°37' W 017°18'  
2014-Apr-11 01:10N 35°21' W 006°45'6313.6
2014-Apr-10 20:32N 35°57' W 005°41'1313.1
2014-Apr-10 19:33N 36°01' W 005°26'7 7.0
2014-Apr-10 18:33N 36°08' W 005°25'0 0.0
2014-Apr-10 17:33N 36°08' W 005°25'0 0.0
2014-Apr-10 16:33N 36°08' W 005°25'0 0.0
2014-Apr-10 15:33N 36°08' W 005°25'0 0.0
2014-Apr-10 14:33N 36°08' W 005°25'0 0.0
2014-Apr-10 13:33N 36°08' W 005°25'0 0.0
2014-Apr-10 12:33N 36°08' W 005°25'0 0.0
2014-Apr-10 11:33N 36°08' W 005°25'0 0.0
2014-Apr-10 10:33N 36°08' W 005°25'0 0.0
2014-Apr-10 09:33N 36°08' W 005°25'0 0.0
2014-Apr-10 08:33N 36°08' W 005°25'0 0.0
2014-Apr-10 07:33N 36°08' W 005°25'0 0.0
2014-Apr-10 06:33N 36°08' W 005°25'0 0.0
2014-Apr-10 05:33N 36°08' W 005°25'0 0.0
2014-Apr-10 04:33N 36°08' W 005°25'0 0.0
2014-Apr-10 03:33N 36°08' W 005°25'0 0.0
2014-Apr-10 02:33N 36°08' W 005°25'0 0.0
2014-Apr-10 01:33N 36°08' W 005°25'0 0.0
2014-Apr-10 00:30N 36°08' W 005°25'0 0.0
2014-Apr-09 23:33N 36°08' W 005°25'0 0.0
2014-Apr-09 22:33N 36°08' W 005°25'1 0.8
2014-Apr-09 21:34N 36°07' W 005°25'1 0.7
2014-Apr-09 20:33N 36°06' W 005°25'0 0.1
2014-Apr-09 19:34N 36°06' W 005°25'0 0.0
2014-Apr-09 18:30N 36°06' W 005°25'0 0.0
2014-Apr-09 17:31N 36°06' W 005°25'0 0.0
2014-Apr-09 16:30N 36°06' W 005°25'0 0.0
2014-Apr-09 15:34N 36°06' W 005°25'0 0.0
2014-Apr-09 14:33N 36°06' W 005°25'0 0.0
2014-Apr-09 13:28N 36°06' W 005°25'0 0.0
2014-Apr-09 12:34N 36°06' W 005°25'0 0.1
2014-Apr-09 11:33N 36°06' W 005°25'0 0.0
2014-Apr-09 10:33N 36°06' W 005°25'0 0.0
2014-Apr-09 09:30N 36°06' W 005°25'0 0.0
2014-Apr-09 08:33N 36°06' W 005°25'0 0.0
2014-Apr-09 07:33N 36°06' W 005°25'0 0.0
2014-Apr-09 06:30N 36°06' W 005°25'0 0.0
2014-Apr-09 05:33N 36°06' W 005°25'0 0.0
2014-Apr-09 04:33N 36°06' W 005°25'0 0.0
2014-Apr-09 03:33N 36°06' W 005°25'0 0.1
2014-Apr-09 02:33N 36°06' W 005°25'0 0.1
2014-Apr-09 01:33N 36°06' W 005°24'0 0.2
2014-Apr-09 00:33N 36°06' W 005°24'0 0.1
2014-Apr-08 23:33N 36°06' W 005°24'0 0.0
2014-Apr-08 22:33N 36°06' W 005°24'0 0.0
2014-Apr-08 21:33N 36°06' W 005°24'0 0.1
2014-Apr-08 20:33N 36°06' W 005°24'0 0.0
2014-Apr-08 19:34N 36°06' W 005°24'0 0.2
2014-Apr-08 18:33N 36°06' W 005°24'4 3.7
2014-Apr-08 17:33N 36°03' W 005°22'1 0.6
2014-Apr-08 16:33N 36°02' W 005°22'3 2.8
2014-Apr-08 15:33N 36°00' W 005°24'8 0.8
2014-Apr-08 05:24N 35°54' W 005°30'3 3.4
2014-Apr-08 04:31N 35°53' W 005°33'1 0.5
2014-Apr-08 03:32N 35°53' W 005°34'0 0.0
2014-Apr-08 01:29N 35°53' W 005°34'1310.2
2014-Apr-08 00:11N 35°54' W 005°50'1319.0
2014-Apr-07 23:28N 35°50' W 006°06'  

Dump ship's entire track history

sailing weather and tide predictions

Gulbeniz A — TCZK8 — position and weather